Terminal Aerodrome Forecast
Issued by NWS

Home | Current Version | Previous Version | Text Only | Print | Product List | Glossary On
Versions: 1 2 3 4 5 6 7 8 9 10 11 12 13 14 15 16 17 18
000
FTUS46 KEKA 221949 AAA
TAFCEC
TAF AMD
KCEC 221949Z 2220/2318 33009KT P6SM VCSH FEW015 SCT020 BKN035
      TEMPO 2220/2224 34010G20KT 6SM -SHRAGS BKN030 OVC035
     FM230300 36008KT P6SM SCT030
     FM230600 01006KT P6SM FEW030=

USA.gov is the U.S. government's official web portal to all federal, state and local government web resources and services.